• Join FlightAware (Why Join?)
  • Login
  • US Flag 
06:28AM EST


 

Airport Tracker/Info


-or-


 

Live Flight TrackerFlight Track Log ✈ MPE478 ✈ 09-Aug-2014 ✈ CYHK - CYZF

Flight Track Log - Related Links

Times and Time Zones

All times are in EDT time to prevent confusion due to time zone crossing. See the MPE478 flight status page for this flight to view local times or setup timezone preferences in your user account.

Time Position Orientation Groundspeed Altitude Reporting Facility
EDT Latitude Longitude Course Direction KTS MPH feet Rate Location/Type
06:33PM 67.9387 -98.4424 235° Southwest  Level FlightAware Approximate
06:34PM 67.9006 -98.5854 235° Southwest  Level FlightAware Approximate
06:35PM 67.8620 -98.7269 234° Southwest  Level FlightAware Approximate
06:36PM 67.8228 -98.8673 234° Southwest  Level FlightAware Approximate
06:37PM 67.7834 -99.0072 233° Southwest  Level FlightAware Approximate
06:38PM 67.7442 -99.1469 234° Southwest  Level FlightAware Approximate
06:39PM 67.7049 -99.2864 233° Southwest  Level FlightAware Approximate
06:40PM 67.6655 -99.4255 233° Southwest  Level FlightAware Approximate
06:41PM 67.6260 -99.5640 233° Southwest  Level FlightAware Approximate
06:42PM 67.5863 -99.7021 233° Southwest  Level FlightAware Approximate
06:43PM 67.5466 -99.8398 233° Southwest  Level FlightAware Approximate
06:44PM 67.5067 -99.9769 233° Southwest  Level FlightAware Approximate
06:45PM 67.4702 -100.1200 237° Southwest  Level FlightAware Approximate
06:46PM 67.4343 -100.2640 237° Southwest  Level FlightAware Approximate
06:47PM 67.3982 -100.4075 237° Southwest  Level FlightAware Approximate
06:48PM 67.3620 -100.5506 237° Southwest  Level FlightAware Approximate
06:49PM 67.3257 -100.6932 237° Southwest  Level FlightAware Approximate
06:50PM 67.2892 -100.8355 236° Southwest  Level FlightAware Approximate
06:51PM 67.2527 -100.9772 236° Southwest  Level FlightAware Approximate
06:52PM 67.2160 -101.1186 236° Southwest  Level FlightAware Approximate
06:53PM 67.1791 -101.2595 236° Southwest  Level FlightAware Approximate
06:54PM 67.1422 -101.4000 236° Southwest  Level FlightAware Approximate
06:55PM 67.1051 -101.5401 236° Southwest  Level FlightAware Approximate
06:56PM 67.0679 -101.6797 236° Southwest  Level FlightAware Approximate
06:57PM 67.0306 -101.8189 236° Southwest  Level FlightAware Approximate
06:58PM 66.9932 -101.9577 235° Southwest  Level FlightAware Approximate
06:59PM 66.9556 -102.0960 235° Southwest  Level FlightAware Approximate
07:00PM 66.9179 -102.2340 235° Southwest  Level FlightAware Approximate
07:01PM 66.8801 -102.3715 235° Southwest  Level FlightAware Approximate
07:02PM 66.8422 -102.5085 235° Southwest  Level FlightAware Approximate
07:03PM 66.8042 -102.6452 235° Southwest  Level FlightAware Approximate
07:04PM 66.7661 -102.7814 235° Southwest  Level FlightAware Approximate
07:05PM 66.7278 -102.9172 235° Southwest  Level FlightAware Approximate
07:06PM 66.6894 -103.0526 234° Southwest  Level FlightAware Approximate
07:07PM 66.6509 -103.1876 234° Southwest  Level FlightAware Approximate
07:08PM 66.6123 -103.3221 234° Southwest  Level FlightAware Approximate
07:09PM 66.5736 -103.4562 234° Southwest  Level FlightAware Approximate
07:10PM 66.5347 -103.5899 234° Southwest  Level FlightAware Approximate
07:11PM 66.4958 -103.7232 234° Southwest  Level FlightAware Approximate
07:12PM 66.4567 -103.8561 234° Southwest  Level FlightAware Approximate
07:13PM 66.4175 -103.9885 234° Southwest  Level FlightAware Approximate
07:14PM 66.3782 -104.1206 233° Southwest  Level FlightAware Approximate
07:15PM 66.3388 -104.2522 233° Southwest  Level FlightAware Approximate
07:16PM 66.2993 -104.3834 233° Southwest  Level FlightAware Approximate
07:17PM 66.2597 -104.5142 233° Southwest  Level FlightAware Approximate
07:18PM 66.2199 -104.6446 233° Southwest  Level FlightAware Approximate
07:19PM 66.1801 -104.7746 233° Southwest  Level FlightAware Approximate
07:20PM 66.1401 -104.9041 233° Southwest  Level FlightAware Approximate
07:21PM 66.1001 -105.0333 233° Southwest  Level FlightAware Approximate
07:22PM 66.0599 -105.1620 232° Southwest  Level FlightAware Approximate
07:23PM 66.0196 -105.2904 232° Southwest  Level FlightAware Approximate
07:24PM 65.9792 -105.4183 232° Southwest  Level FlightAware Approximate
07:25PM 65.9388 -105.5458 232° Southwest  Level FlightAware Approximate
07:26PM 65.8981 -105.6730 232° Southwest  Level FlightAware Approximate
07:27PM 65.8575 -105.7997 232° Southwest  Level FlightAware Approximate
07:28PM 65.8167 -105.9260 232° Southwest  Level FlightAware Approximate
07:29PM 65.7757 -106.0519 232° Southwest  Level FlightAware Approximate
07:30PM 65.7347 -106.1775 232° Southwest  Level FlightAware Approximate
07:31PM 65.6936 -106.3026 231° Southwest  Level FlightAware Approximate
07:32PM 65.6524 -106.4273 231° Southwest  Level FlightAware Approximate
07:33PM 65.6111 -106.5517 231° Southwest  Level FlightAware Approximate
07:34PM 65.5697 -106.6756 231° Southwest  Level FlightAware Approximate
07:35PM 65.5282 -106.7991 231° Southwest  Level FlightAware Approximate
07:36PM 65.4865 -106.9223 231° Southwest  Level FlightAware Approximate
07:37PM 65.4448 -107.0451 231° Southwest  Level FlightAware Approximate
07:38PM 65.4030 -107.1674 231° Southwest  Level FlightAware Approximate
07:39PM 65.3611 -107.2894 231° Southwest  Level FlightAware Approximate
07:40PM 65.3191 -107.4110 230° Southwest  Level FlightAware Approximate
07:41PM 65.2769 -107.5322 230° Southwest  Level FlightAware Approximate
07:42PM 65.2347 -107.6530 230° Southwest  Level FlightAware Approximate
07:43PM 65.1924 -107.7734 230° Southwest  Level FlightAware Approximate
07:44PM 65.1500 -107.8935 230° Southwest  Level FlightAware Approximate
07:45PM 65.1075 -108.0132 230° Southwest  Level FlightAware Approximate
07:46PM 65.0649 -108.1324 230° Southwest  Level FlightAware Approximate
07:47PM 65.0223 -108.2513 230° Southwest  Level FlightAware Approximate
07:48PM 64.9795 -108.3698 230° Southwest  Level FlightAware Approximate
07:49PM 64.9366 -108.4880 229° Southwest  Level FlightAware Approximate
07:50PM 64.8936 -108.6057 229° Southwest  Level FlightAware Approximate
07:51PM 64.8506 -108.7231 229° Southwest  Level FlightAware Approximate
07:52PM 64.8074 -108.8401 229° Southwest  Level FlightAware Approximate
07:53PM 64.7642 -108.9568 229° Southwest  Level FlightAware Approximate
07:54PM 64.7208 -109.0730 229° Southwest  Level FlightAware Approximate
07:55PM 64.6774 -109.1889 229° Southwest  Level FlightAware Approximate
07:56PM 64.6339 -109.3044 229° Southwest  Level FlightAware Approximate
07:57PM 64.5903 -109.4195 228° Southwest  Level FlightAware Approximate
07:58PM 64.5465 -109.5342 228° Southwest  Level FlightAware Approximate
07:59PM 64.5027 -109.6485 228° Southwest  Level FlightAware Approximate
08:00PM 64.4587 -109.7624 228° Southwest  Level FlightAware Approximate
08:01PM 64.4147 -109.8760 228° Southwest  Level FlightAware Approximate
08:02PM 64.3706 -109.9892 228° Southwest  Level FlightAware Approximate
08:03PM 64.3264 -110.1020 228° Southwest  Level FlightAware Approximate
08:04PM 64.2822 -110.2145 228° Southwest  Level FlightAware Approximate
08:05PM 64.2378 -110.3266 228° Southwest  Level FlightAware Approximate
08:06PM 64.1933 -110.4383 228° Southwest  Level FlightAware Approximate
08:07PM 64.1488 -110.5497 228° Southwest  Level FlightAware Approximate
08:08PM 64.1042 -110.6608 227° Southwest  Level FlightAware Approximate
08:08PM 64.3500 -110.1167 227° Southwest 250 288 24,000  Level Edmonton Center
08:09PM 64.0595 -110.7715 227° Southwest  Level FlightAware Approximate
08:09PM 64.3167 -110.2333 237° Southwest 250 288 24,000  Level Edmonton Center
08:10PM 64.0147 -110.8818 227° Southwest  Level FlightAware Approximate
08:10PM 64.2500 -110.3500 217° Southwest 250 288 24,000  Level Edmonton Center
08:11PM 63.9698 -110.9918 227° Southwest  Level FlightAware Approximate
08:11PM 64.2000 -110.4833 229° Southwest 250 288 24,000  Level Edmonton Center
08:12PM 63.9249 -111.1014 227° Southwest  Level FlightAware Approximate
08:12PM 64.1667 -110.6000 237° Southwest 250 288 24,000  Level Edmonton Center
08:13PM 63.8798 -111.2107 227° Southwest  Level FlightAware Approximate
08:13PM 64.1167 -110.7000 221° Southwest 250 288 24,000  Level Edmonton Center
08:14PM 64.0667 -110.8500 233° Southwest 250 288 24,000  Level Edmonton Center
08:15PM 64.0167 -110.9500 221° Southwest 250 288 24,000  Level Edmonton Center
08:16PM 63.9667 -111.0667 226° Southwest 250 288 24,000  Level Edmonton Center
08:17PM 63.9167 -111.2000 230° Southwest 250 288 24,000  Level Edmonton Center
08:18PM 63.8833 -111.3167 237° Southwest 250 288 24,000  Level Edmonton Center
08:19PM 63.8333 -111.4167 221° Southwest 250 288 24,000  Level Edmonton Center
08:20PM 63.7833 -111.5667 233° Southwest 250 288 24,000  Level Edmonton Center
08:21PM 63.7167 -111.6667 214° Southwest 250 288 24,000  Level Edmonton Center
08:22PM 63.6833 -111.8167 243° Southwest 250 288 24,000  Level Edmonton Center
08:23PM 63.6500 -111.9167 233° Southwest 250 288 24,000  Level Edmonton Center
08:24PM 63.5833 -112.0167 214° Southwest 250 288 24,000  Level Edmonton Center
08:25PM 63.5500 -112.1667 244° Southwest 250 288 24,000  Level Edmonton Center
08:26PM 63.4833 -112.2667 214° Southwest 250 288 24,000  Level Edmonton Center
08:27PM 63.4500 -112.3667 233° Southwest 250 288 24,000  Level Edmonton Center
08:28PM 63.4000 -112.5000 230° Southwest 250 288 24,000 -120 Level Edmonton Center
08:29PM 63.3500 -112.6000 222° Southwest 250 288 23,800 -780 Descending Edmonton Center
08:30PM 63.3000 -112.7500 233° Southwest 260 299 22,500 -1,440 Descending Edmonton Center
08:31PM 63.2333 -112.8333 209° Southwest 280 322 21,000 -1,500 Descending Edmonton Center
08:32PM 63.2000 -112.9833 244° Southwest 280 322 19,500 -1,560 Descending Edmonton Center
08:33PM 63.1333 -113.1167 222° Southwest 270 311 17,900 -1,560 Descending Edmonton Center
08:34PM 63.0833 -113.2500 230° Southwest 280 322 16,400 -1,500 Descending Edmonton Center
08:35PM 63.0167 -113.3500 214° Southwest 280 322 14,900 -1,500 Descending Edmonton Center
08:36PM 62.9833 -113.4833 241° Southwest 270 311 13,400 -1,500 Descending Edmonton Center
08:37PM 62.9167 -113.6167 222° Southwest 270 311 11,900 -1,500 Descending Edmonton Center
08:38PM 62.8667 -113.7167 222° Southwest 270 311 10,500 -1,440 Descending Edmonton Center
08:39PM 62.8167 -113.8500 231° Southwest 270 311 9,100 -1,380 Descending Edmonton Center
08:40PM 62.7667 -113.9833 231° Southwest 270 311 7,800 -1,320 Descending Edmonton Center
08:41PM 62.7167 -114.0833 223° Southwest 260 299 6,500 -1,320 Descending Edmonton Center
08:42PM 62.6667 -114.2167 231° Southwest 260 299 5,200 -1,140 Descending Edmonton Center
08:43PM 62.6167 -114.3167 223° Southwest 240 276 4,300 -1,200 Descending Edmonton Center
08:44PM 62.5833 -114.4167 234° Southwest 200 230 2,900 -1,140 Descending Edmonton Center
08:45PM 62.5333 -114.4667 205° Southwest 160 184 2,100 -720 Descending Edmonton Center
08:46PM 62.5000 -114.5000 205° Southwest 130 150 1,500 -660 Descending Edmonton Center
08:47PM 62.4833 -114.5000 180° South 110 127 800 -480 Descending Edmonton Center
08:48PM 62.4500 -114.4833 167° South 70 81 600 -240 Descending Edmonton Center